createdAt,value
2022-08-10T00:00:57.125Z,22.53
2022-08-10T00:03:26.196Z,22.40
2022-08-10T00:05:56.437Z,22.31
2022-08-10T00:08:25.979Z,22.16
2022-08-10T00:10:54.116Z,22.11
2022-08-10T00:13:23.099Z,22.07
2022-08-10T00:15:55.032Z,22.04
2022-08-10T00:18:35.196Z,22.00
2022-08-10T00:21:06.663Z,21.99
2022-08-10T00:23:34.485Z,21.96
2022-08-10T00:26:02.383Z,21.99
2022-08-10T00:28:30.096Z,21.90
2022-08-10T00:30:58.022Z,21.85
2022-08-10T00:33:25.740Z,21.78
2022-08-10T00:35:53.512Z,21.69
2022-08-10T00:38:22.648Z,21.67
2022-08-10T00:40:50.405Z,21.59
2022-08-10T00:43:23.338Z,21.55
2022-08-10T00:45:58.823Z,21.43
2022-08-10T00:48:29.099Z,21.42
2022-08-10T00:50:57.324Z,21.37
2022-08-10T00:53:26.427Z,21.37
2022-08-10T00:57:09.897Z,21.36
2022-08-10T00:58:42.560Z,21.31
2022-08-10T01:01:11.055Z,21.21
2022-08-10T01:04:36.426Z,21.18
2022-08-10T01:06:54.455Z,21.14
2022-08-10T01:09:33.049Z,21.14
2022-08-10T01:12:39.224Z,21.25
2022-08-10T01:15:06.082Z,21.13
2022-08-10T01:17:50.521Z,21.11
2022-08-10T01:20:30.151Z,21.12
2022-08-10T01:23:26.626Z,21.07
2022-08-10T01:26:30.449Z,21.12
2022-08-10T01:29:14.188Z,21.05
2022-08-10T01:31:46.068Z,20.99
2022-08-10T01:34:20.964Z,20.97
2022-08-10T01:36:52.418Z,20.91
2022-08-10T01:39:24.789Z,20.87
2022-08-10T01:41:56.883Z,20.84
2022-08-10T01:44:30.830Z,20.79
2022-08-10T01:47:22.033Z,20.67
2022-08-10T01:49:54.935Z,20.66
2022-08-10T01:52:24.813Z,20.63
2022-08-10T01:54:56.205Z,20.65
2022-08-10T01:57:26.543Z,20.64
2022-08-10T02:00:02.041Z,20.64
2022-08-10T02:02:32.419Z,20.58
2022-08-10T02:05:03.258Z,20.54
2022-08-10T02:07:33.582Z,20.55
2022-08-10T02:10:10.632Z,20.53
2022-08-10T02:12:40.546Z,20.54
2022-08-10T02:15:12.619Z,20.51
2022-08-10T02:18:00.902Z,20.46
2022-08-10T02:20:35.053Z,20.43
2022-08-10T02:23:08.450Z,20.35
2022-08-10T02:25:42.210Z,20.32
2022-08-10T02:28:29.361Z,20.31
2022-08-10T02:31:02.722Z,20.29
2022-08-10T02:33:37.302Z,20.30
2022-08-10T02:36:07.336Z,20.23
2022-08-10T02:38:58.597Z,20.17
2022-08-10T02:45:03.660Z,20.16
2022-08-10T02:45:15.406Z,20.12
2022-08-10T02:47:22.199Z,20.19
2022-08-10T02:49:56.723Z,20.20
2022-08-10T02:52:29.749Z,20.12
2022-08-10T02:55:14.472Z,20.12
2022-08-10T02:58:12.659Z,20.12
2022-08-10T03:00:44.680Z,20.13
2022-08-10T03:03:18.759Z,20.07
2022-08-10T03:05:54.597Z,20.04
2022-08-10T03:08:28.726Z,20.08
2022-08-10T03:10:58.210Z,20.11
2022-08-10T03:13:27.554Z,20.10
2022-08-10T03:15:57.277Z,20.04
2022-08-10T03:18:26.247Z,19.92
2022-08-10T03:20:57.161Z,19.98
2022-08-10T03:23:28.006Z,19.98
2022-08-10T03:25:58.547Z,19.94
2022-08-10T03:28:28.720Z,19.91
2022-08-10T03:30:58.108Z,19.95
2022-08-10T03:33:29.752Z,19.91
2022-08-10T03:36:43.261Z,19.83
2022-08-10T03:38:51.952Z,19.90
2022-08-10T03:41:24.331Z,19.87
2022-08-10T03:43:54.481Z,19.85
2022-08-10T03:46:24.676Z,19.78
2022-08-10T03:48:56.969Z,19.80
2022-08-10T03:51:27.068Z,19.79
2022-08-10T03:54:05.771Z,19.80
2022-08-10T03:56:36.758Z,19.70
2022-08-10T03:59:05.557Z,19.62
2022-08-10T04:02:44.710Z,19.56
2022-08-10T04:04:24.579Z,19.54
2022-08-10T04:06:56.602Z,19.65
2022-08-10T04:09:43.186Z,19.64
2022-08-10T04:12:15.243Z,19.62
2022-08-10T04:14:51.431Z,19.62
2022-08-10T04:18:00.221Z,19.59
2022-08-10T04:20:19.552Z,19.59
2022-08-10T04:22:52.133Z,19.58
2022-08-10T04:25:21.992Z,19.55
2022-08-10T04:27:50.951Z,19.60
2022-08-10T04:30:19.160Z,19.55
2022-08-10T04:32:49.788Z,19.56
2022-08-10T04:35:19.981Z,19.47
2022-08-10T04:37:50.610Z,19.51
2022-08-10T04:40:29.234Z,19.51
2022-08-10T04:43:03.367Z,19.44
2022-08-10T04:45:49.043Z,19.47
2022-08-10T04:48:43.296Z,19.45
2022-08-10T04:51:18.115Z,19.46
2022-08-10T04:54:03.922Z,19.45
2022-08-10T04:56:35.815Z,19.48
2022-08-10T04:59:03.641Z,19.47
2022-08-10T05:02:12.266Z,19.53
2022-08-10T05:04:35.706Z,19.52
2022-08-10T05:07:10.486Z,19.43
2022-08-10T05:10:01.226Z,19.38
2022-08-10T05:12:29.290Z,19.37
2022-08-10T05:14:57.256Z,19.36
2022-08-10T05:17:25.435Z,19.34
2022-08-10T05:20:04.088Z,19.38
2022-08-10T05:22:33.479Z,19.49
2022-08-10T05:25:02.730Z,19.61
2022-08-10T05:27:30.421Z,19.68
2022-08-10T05:30:01.994Z,19.72
2022-08-10T05:32:31.199Z,19.79
2022-08-10T05:34:59.268Z,19.76
2022-08-10T05:38:10.375Z,19.76
2022-08-10T05:40:16.996Z,19.85
2022-08-10T05:42:44.996Z,19.94
2022-08-10T05:45:21.272Z,19.95
2022-08-10T05:48:58.146Z,19.95
2022-08-10T05:50:37.129Z,20.02
2022-08-10T05:53:58.954Z,20.04
2022-08-10T05:55:55.248Z,20.10
2022-08-10T05:58:23.127Z,20.16
2022-08-10T06:00:54.367Z,20.15
2022-08-10T06:03:26.866Z,20.31
2022-08-10T06:05:56.375Z,20.31
2022-08-10T06:08:26.944Z,20.30
2022-08-10T06:12:23.629Z,20.31
2022-08-10T06:14:13.870Z,20.32
2022-08-10T06:16:44.884Z,20.31
2022-08-10T06:19:14.554Z,20.32
2022-08-10T06:22:00.448Z,20.38
2022-08-10T06:24:31.011Z,20.42
2022-08-10T06:27:01.122Z,20.43
2022-08-10T06:29:33.062Z,20.46
2022-08-10T06:32:02.523Z,20.49
2022-08-10T06:34:33.874Z,20.57
2022-08-10T06:37:04.626Z,20.63
2022-08-10T06:39:34.948Z,20.71
2022-08-10T06:42:16.011Z,20.77
2022-08-10T06:44:50.084Z,20.95
2022-08-10T06:47:22.962Z,21.00
2022-08-10T06:49:53.617Z,21.03
2022-08-10T06:52:29.758Z,21.34
2022-08-10T06:55:00.507Z,21.31
2022-08-10T06:57:33.730Z,21.46
2022-08-10T07:00:03.683Z,21.46
2022-08-10T07:02:42.340Z,21.47
2022-08-10T07:05:15.333Z,21.59
2022-08-10T07:07:45.030Z,21.54
2022-08-10T07:10:14.386Z,21.59
2022-08-10T07:12:45.551Z,21.61
2022-08-10T07:15:17.311Z,21.63
2022-08-10T07:17:46.118Z,21.88
2022-08-10T07:20:17.787Z,21.86
2022-08-10T07:23:51.749Z,21.82
2022-08-10T07:25:38.543Z,21.80
2022-08-10T07:28:09.018Z,21.80
2022-08-10T07:30:39.240Z,21.92
2022-08-10T07:33:08.294Z,21.93
2022-08-10T07:35:42.196Z,21.94
2022-08-10T07:38:16.958Z,22.04
2022-08-10T07:40:45.770Z,22.06
2022-08-10T07:43:17.298Z,22.10
2022-08-10T07:45:47.095Z,22.09
2022-08-10T07:48:18.211Z,22.14
2022-08-10T07:50:48.004Z,22.19
2022-08-10T07:53:22.486Z,22.46
2022-08-10T07:56:04.785Z,22.47
2022-08-10T07:58:51.321Z,22.43
2022-08-10T08:01:24.121Z,22.83
2022-08-10T08:04:05.397Z,22.82
2022-08-10T08:06:40.229Z,23.03
2022-08-10T08:09:08.990Z,22.92
2022-08-10T08:11:38.921Z,22.82
2022-08-10T08:14:09.791Z,23.01
2022-08-10T08:16:40.827Z,22.95
2022-08-10T08:19:31.262Z,22.95
2022-08-10T08:24:10.889Z,22.92
2022-08-10T08:24:52.158Z,23.04
2022-08-10T08:27:22.185Z,22.97
2022-08-10T08:29:53.411Z,22.96
2022-08-10T08:32:23.965Z,22.99
2022-08-10T08:34:56.927Z,23.06
2022-08-10T08:38:31.941Z,23.05
2022-08-10T08:40:20.149Z,22.99
2022-08-10T08:43:31.370Z,23.14
2022-08-10T08:46:38.475Z,23.26
2022-08-10T08:50:07.634Z,23.24
2022-08-10T08:52:36.471Z,23.14
2022-08-10T08:56:04.808Z,23.16
2022-08-10T08:58:09.452Z,23.11
2022-08-10T09:00:44.787Z,23.28
2022-08-10T09:03:38.885Z,23.19
2022-08-10T09:06:21.275Z,23.22
2022-08-10T09:09:04.273Z,23.36
2022-08-10T09:11:45.662Z,23.61
2022-08-10T09:14:25.660Z,23.59
2022-08-10T09:17:00.642Z,23.52
2022-08-10T09:19:38.863Z,23.43
2022-08-10T09:22:17.946Z,23.37
2022-08-10T09:24:52.944Z,23.54
2022-08-10T09:27:22.689Z,23.72
2022-08-10T09:36:16.201Z,23.57
2022-08-10T09:36:25.565Z,23.72
2022-08-10T09:38:27.908Z,23.63
2022-08-10T09:41:05.077Z,23.59
2022-08-10T09:43:49.308Z,23.58
2022-08-10T09:46:27.849Z,23.73
2022-08-10T09:49:04.261Z,23.66
2022-08-10T09:51:46.643Z,23.99
2022-08-10T09:54:37.161Z,23.82
2022-08-10T09:57:43.816Z,24.05
2022-08-10T10:00:10.648Z,23.93
2022-08-10T10:02:52.312Z,23.84
2022-08-10T10:05:31.907Z,23.80
2022-08-10T10:08:08.470Z,24.00
2022-08-10T10:10:47.553Z,24.05
2022-08-10T10:13:49.978Z,24.09
2022-08-10T10:16:23.234Z,24.07
2022-08-10T10:19:01.256Z,24.15
2022-08-10T10:21:56.129Z,24.05
2022-08-10T10:24:36.595Z,24.05
2022-08-10T10:27:16.458Z,24.18
2022-08-10T10:29:56.358Z,24.48
2022-08-10T10:32:36.695Z,24.45
2022-08-10T10:35:16.064Z,24.36
2022-08-10T10:38:01.832Z,24.23
2022-08-10T10:40:41.065Z,24.26
2022-08-10T10:43:23.131Z,24.36
2022-08-10T10:46:04.398Z,24.37
2022-08-10T10:48:41.734Z,24.33
2022-08-10T10:51:17.419Z,24.25
2022-08-10T10:53:50.695Z,24.22
2022-08-10T10:56:31.807Z,24.21
2022-08-10T10:59:33.252Z,24.23
2022-08-10T11:02:04.919Z,24.19
2022-08-10T11:04:41.718Z,24.19
2022-08-10T11:07:17.885Z,24.25
2022-08-10T11:10:04.763Z,24.17
2022-08-10T11:12:47.745Z,24.26
2022-08-10T11:15:26.181Z,24.36
2022-08-10T11:17:59.175Z,24.27
2022-08-10T11:20:38.088Z,24.48
2022-08-10T11:23:18.573Z,24.36
2022-08-10T11:25:51.856Z,24.39
2022-08-10T11:28:26.942Z,24.37
2022-08-10T11:31:02.685Z,24.41
2022-08-10T11:34:03.768Z,24.39
2022-08-10T11:36:32.330Z,24.35
2022-08-10T11:39:17.124Z,24.42
2022-08-10T11:42:12.442Z,24.50
2022-08-10T11:44:50.210Z,24.57
2022-08-10T11:47:21.468Z,24.69
2022-08-10T11:49:55.135Z,24.73
2022-08-10T11:52:34.161Z,24.65
2022-08-10T11:55:10.812Z,24.65
2022-08-10T11:57:53.117Z,24.53
2022-08-10T12:00:24.204Z,24.62
2022-08-10T12:02:56.486Z,24.55
2022-08-10T12:05:51.533Z,24.67
2022-08-10T12:10:03.806Z,24.83
2022-08-10T12:11:07.881Z,25.03
2022-08-10T12:13:53.818Z,24.93
2022-08-10T12:16:30.403Z,25.02
2022-08-10T12:19:03.898Z,25.19
2022-08-10T12:21:35.260Z,25.28
2022-08-10T12:24:10.469Z,25.09
2022-08-10T12:26:45.114Z,25.14
2022-08-10T12:29:24.835Z,25.33
2022-08-10T12:32:00.350Z,25.16
2022-08-10T12:34:33.346Z,25.19
2022-08-10T12:37:08.407Z,25.36
2022-08-10T12:39:44.621Z,25.25
2022-08-10T12:42:36.828Z,25.04
2022-08-10T12:45:15.650Z,25.08
2022-08-10T12:47:52.196Z,25.10
2022-08-10T12:50:31.122Z,25.19
2022-08-10T12:53:06.549Z,25.00
2022-08-10T12:55:35.457Z,24.93
2022-08-10T12:58:56.721Z,24.93
2022-08-10T13:01:15.019Z,24.98
2022-08-10T13:04:22.916Z,25.02
2022-08-10T13:06:38.534Z,25.08
2022-08-10T13:09:13.848Z,25.14
2022-08-10T13:12:34.809Z,25.21
2022-08-10T13:14:38.418Z,25.10
2022-08-10T13:17:08.799Z,25.15
2022-08-10T13:19:55.085Z,25.05
2022-08-10T13:22:28.656Z,25.17
2022-08-10T13:25:02.434Z,25.14
2022-08-10T13:28:00.657Z,25.21
2022-08-10T13:30:37.201Z,25.22
2022-08-10T13:33:06.930Z,25.20
2022-08-10T13:35:38.496Z,25.35
2022-08-10T13:38:08.423Z,25.36
2022-08-10T13:40:37.280Z,25.47
2022-08-10T13:43:09.576Z,25.51
2022-08-10T13:45:45.146Z,25.43
2022-08-10T13:48:21.207Z,25.59
2022-08-10T13:50:52.519Z,25.54
2022-08-10T13:53:21.846Z,25.52
2022-08-10T13:55:53.923Z,25.50
2022-08-10T13:58:25.857Z,25.52
2022-08-10T14:00:55.778Z,25.51
2022-08-10T14:03:25.420Z,25.70
2022-08-10T14:05:55.647Z,25.73
2022-08-10T14:08:27.775Z,25.84
2022-08-10T14:11:08.569Z,25.79
2022-08-10T14:13:44.261Z,25.83
2022-08-10T14:16:13.321Z,25.97
2022-08-10T14:18:45.016Z,26.02
2022-08-10T14:21:15.268Z,26.11
2022-08-10T14:23:53.051Z,26.35
2022-08-10T14:26:24.506Z,26.72
2022-08-10T14:28:55.733Z,27.07
2022-08-10T14:31:27.050Z,27.41
2022-08-10T14:34:00.160Z,27.72
2022-08-10T14:36:39.111Z,28.05
2022-08-10T14:39:09.728Z,28.36
2022-08-10T14:42:01.748Z,28.65
2022-08-10T14:44:30.431Z,28.92
2022-08-10T14:47:20.122Z,29.16
2022-08-10T14:49:57.822Z,29.50
2022-08-10T14:52:29.733Z,29.52
2022-08-10T14:55:04.413Z,29.68
2022-08-10T14:58:17.145Z,29.82
2022-08-10T15:00:33.844Z,29.94
2022-08-10T15:03:11.000Z,30.13
2022-08-10T15:05:59.080Z,30.16
2022-08-10T15:08:36.941Z,30.12
2022-08-10T15:11:06.107Z,30.14
2022-08-10T15:13:36.716Z,30.09
2022-08-10T15:16:13.116Z,30.13
2022-08-10T15:18:57.468Z,30.00
2022-08-10T15:21:37.819Z,30.26
2022-08-10T15:24:36.429Z,30.43
2022-08-10T15:27:08.728Z,30.44
2022-08-10T15:29:57.441Z,30.43
2022-08-10T15:32:51.941Z,30.59
2022-08-10T15:35:47.922Z,30.33
2022-08-10T15:38:31.355Z,30.21
2022-08-10T15:41:06.412Z,30.22
2022-08-10T15:43:44.741Z,30.19
2022-08-10T15:46:17.253Z,30.02
2022-08-10T15:48:48.150Z,30.21
2022-08-10T15:51:22.283Z,30.21
2022-08-10T15:54:03.397Z,30.06
2022-08-10T15:56:41.183Z,29.95
2022-08-10T15:59:13.723Z,29.99
2022-08-10T16:02:13.897Z,30.07
2022-08-10T16:04:37.687Z,29.97
2022-08-10T16:07:09.902Z,29.92
2022-08-10T16:10:23.379Z,29.87
2022-08-10T16:12:40.080Z,29.77
2022-08-10T16:15:12.460Z,30.04
2022-08-10T16:17:55.584Z,29.89
2022-08-10T16:20:31.314Z,29.84
2022-08-10T16:23:02.240Z,29.77
2022-08-10T16:25:48.436Z,29.73
2022-08-10T16:28:23.785Z,29.57
2022-08-10T16:30:54.127Z,29.48
2022-08-10T16:33:27.535Z,29.61
2022-08-10T16:36:18.573Z,29.46
2022-08-10T16:38:49.847Z,29.52
2022-08-10T16:42:04.219Z,29.67
2022-08-10T16:44:14.996Z,29.67
2022-08-10T16:46:45.636Z,29.67
2022-08-10T16:49:14.580Z,29.41
2022-08-10T16:51:47.546Z,29.27
2022-08-10T16:54:18.214Z,29.16
2022-08-10T16:56:49.244Z,29.14
2022-08-10T16:59:24.714Z,29.12
2022-08-10T17:01:54.182Z,28.98
2022-08-10T17:04:24.323Z,28.92
2022-08-10T17:06:56.357Z,28.88
2022-08-10T17:09:28.008Z,28.86
2022-08-10T17:11:58.135Z,28.72
2022-08-10T17:14:29.606Z,28.64
2022-08-10T17:17:01.198Z,28.49
2022-08-10T17:19:32.665Z,28.39
2022-08-10T17:22:05.007Z,28.26
2022-08-10T17:24:35.676Z,28.10
2022-08-10T17:28:05.678Z,28.14
2022-08-10T17:30:04.722Z,27.93
2022-08-10T17:32:44.026Z,27.77
2022-08-10T17:35:16.788Z,27.71
2022-08-10T17:37:49.981Z,27.66
2022-08-10T17:40:19.892Z,27.57
2022-08-10T17:42:50.445Z,27.45
2022-08-10T17:45:47.595Z,27.42
2022-08-10T17:48:11.114Z,27.31
2022-08-10T17:50:42.247Z,27.28
2022-08-10T17:53:16.224Z,27.09
2022-08-10T17:55:47.153Z,27.14
2022-08-10T17:58:17.755Z,27.01
2022-08-10T18:00:49.655Z,26.96
2022-08-10T18:03:25.699Z,27.01
2022-08-10T18:05:56.031Z,26.88
2022-08-10T18:08:29.124Z,26.79
2022-08-10T18:10:59.926Z,26.66
2022-08-10T18:13:55.671Z,26.57
2022-08-10T18:16:25.108Z,26.62
2022-08-10T18:19:00.057Z,26.47
2022-08-10T18:21:32.267Z,26.40
2022-08-10T18:24:04.623Z,26.40
2022-08-10T18:26:37.030Z,26.48
2022-08-10T18:29:10.756Z,26.32
2022-08-10T18:31:44.516Z,26.23
2022-08-10T18:34:16.289Z,26.34
2022-08-10T18:36:47.790Z,26.22
2022-08-10T18:39:21.111Z,26.07
2022-08-10T18:42:00.744Z,25.99
2022-08-10T18:44:37.057Z,25.98
2022-08-10T18:47:13.815Z,25.90
2022-08-10T18:49:58.808Z,25.77
2022-08-10T18:52:29.354Z,25.70
2022-08-10T18:55:14.512Z,25.62
2022-08-10T18:58:15.936Z,25.60
2022-08-10T19:01:02.296Z,25.74
2022-08-10T19:03:54.108Z,25.67
2022-08-10T19:06:42.097Z,25.66
2022-08-10T19:09:47.300Z,25.51
2022-08-10T19:12:33.860Z,25.42
2022-08-10T19:15:15.702Z,25.34
2022-08-10T19:18:03.708Z,25.22
2022-08-10T19:20:40.311Z,25.13
2022-08-10T19:23:19.371Z,25.09
2022-08-10T19:26:39.288Z,25.20
2022-08-10T19:28:48.155Z,25.11
2022-08-10T19:31:22.097Z,25.02
2022-08-10T19:34:11.793Z,25.02
2022-08-10T19:36:51.831Z,24.94
2022-08-10T19:39:26.359Z,24.85
2022-08-10T19:42:11.261Z,24.82
2022-08-10T19:44:47.374Z,24.77
2022-08-10T19:47:25.553Z,24.74
2022-08-10T19:50:00.277Z,24.73
2022-08-10T19:52:35.637Z,24.66
2022-08-10T19:55:15.425Z,24.63
2022-08-10T19:57:53.030Z,24.54
2022-08-10T20:00:26.950Z,24.52
2022-08-10T20:03:12.319Z,24.57
2022-08-10T20:06:18.858Z,24.52
2022-08-10T20:08:45.696Z,24.50
2022-08-10T20:11:44.421Z,24.46
2022-08-10T20:14:22.249Z,24.37
2022-08-10T20:16:55.808Z,24.37
2022-08-10T20:19:53.441Z,24.38
2022-08-10T20:22:28.732Z,24.29
2022-08-10T20:25:09.424Z,24.22
2022-08-10T20:27:59.054Z,24.20
2022-08-10T20:30:32.641Z,24.14
2022-08-10T20:33:08.939Z,24.18
2022-08-10T20:35:48.960Z,24.14
2022-08-10T20:38:27.172Z,24.05
2022-08-10T20:41:07.550Z,23.95
2022-08-10T20:43:42.969Z,23.84
2022-08-10T20:46:21.399Z,23.82
2022-08-10T20:48:56.289Z,23.77
2022-08-10T20:51:58.990Z,23.74
2022-08-10T20:54:19.875Z,23.68
2022-08-10T20:57:54.243Z,23.64
2022-08-10T21:00:07.431Z,23.59
2022-08-10T21:03:07.566Z,23.67
2022-08-10T21:05:44.349Z,23.72
2022-08-10T21:08:18.295Z,23.65
2022-08-10T21:11:03.875Z,23.58
2022-08-10T21:14:01.888Z,23.55
2022-08-10T21:16:41.822Z,23.45
2022-08-10T21:19:53.730Z,23.40
2022-08-10T21:22:28.923Z,23.35
2022-08-10T21:25:01.451Z,23.30
2022-08-10T21:27:49.178Z,23.26
2022-08-10T21:30:37.976Z,23.24
2022-08-10T21:33:11.883Z,23.22
2022-08-10T21:35:45.000Z,23.17
2022-08-10T21:38:24.489Z,23.21
2022-08-10T21:41:57.202Z,23.22
2022-08-10T21:44:52.939Z,23.18
2022-08-10T21:48:07.061Z,23.17
2022-08-10T21:51:01.938Z,23.11
2022-08-10T21:53:55.103Z,23.04
2022-08-10T21:56:46.200Z,23.01
2022-08-10T21:59:47.890Z,22.97
2022-08-10T22:02:40.978Z,22.90
2022-08-10T22:05:43.731Z,22.90
2022-08-10T22:08:31.024Z,22.83
2022-08-10T22:11:17.819Z,22.81
2022-08-10T22:14:09.534Z,22.73
2022-08-10T22:17:03.964Z,22.69
2022-08-10T22:19:52.693Z,22.64
2022-08-10T22:22:56.369Z,22.67
2022-08-10T22:25:55.084Z,22.60
2022-08-10T22:28:40.633Z,22.60
2022-08-10T22:31:46.303Z,22.59
2022-08-10T22:34:47.772Z,22.50
2022-08-10T22:37:53.287Z,22.48
2022-08-10T22:40:40.737Z,22.47
2022-08-10T22:43:36.434Z,22.40
2022-08-10T22:46:29.800Z,22.47
2022-08-10T22:48:59.530Z,22.48
2022-08-10T22:51:36.705Z,22.50
2022-08-10T22:54:31.935Z,22.58
2022-08-10T22:57:19.182Z,22.65
2022-08-10T22:59:47.644Z,22.54
2022-08-10T23:02:26.248Z,22.44
2022-08-10T23:04:58.251Z,22.39
2022-08-10T23:07:29.186Z,22.31
2022-08-10T23:10:02.550Z,22.23
2022-08-10T23:12:36.142Z,22.26
2022-08-10T23:15:25.412Z,22.24
2022-08-10T23:18:15.739Z,22.15
2022-08-10T23:20:45.954Z,22.16
2022-08-10T23:23:23.693Z,22.18
2022-08-10T23:25:56.824Z,22.15
2022-08-10T23:28:38.848Z,22.11
2022-08-10T23:31:13.211Z,22.06
2022-08-10T23:33:43.576Z,22.14
2022-08-10T23:36:33.764Z,22.11
2022-08-10T23:39:26.415Z,22.07
2022-08-10T23:42:04.586Z,22.07
2022-08-10T23:44:38.012Z,22.05
2022-08-10T23:47:07.018Z,21.90
2022-08-10T23:49:36.739Z,21.84
2022-08-10T23:52:11.748Z,21.80
2022-08-10T23:54:45.742Z,21.76
2022-08-10T23:57:19.496Z,21.72
2022-08-10T23:59:54.041Z,21.71
